Time;durP1;ratioP1;P1;durP2;ratioP2;P2;SDS_P1;SDS_P2;PMS_P1;PMS_P2;Temp;Humidity;BMP_temperature;BMP_pressure;BME280_temperature;BME280_humidity;BME280_pressure;Samples;Min_cycle;Max_cycle;Signal;HPM_P1;HPM_P2
2020/12/25 00:02:04;;;;;;;9.82;4.53;;;6.80;98.80;;;;;;4992041;28;20041;-72
2020/12/25 00:04:30;;;;;;;12.53;4.20;;;6.80;98.80;;;;;;4992412;28;20452;-71
2020/12/25 00:06:56;;;;;;;11.75;4.00;;;6.80;98.90;;;;;;4991249;28;20166;-72
2020/12/25 00:09:21;;;;;;;13.98;4.15;;;6.80;98.90;;;;;;4991960;28;20073;-72
2020/12/25 00:11:47;;;;;;;7.38;3.35;;;6.80;98.90;;;;;;4993812;28;20053;-73
2020/12/25 00:14:13;;;;;;;10.88;4.25;;;6.80;99.00;;;;;;4992273;28;20469;-71
2020/12/25 00:16:39;;;;;;;12.73;4.30;;;6.80;99.00;;;;;;4992012;28;20030;-72
2020/12/25 00:19:04;;;;;;;9.98;4.10;;;6.80;98.70;;;;;;4991845;28;20129;-72
2020/12/25 00:21:31;;;;;;;8.60;3.55;;;6.80;98.60;;;;;;4990863;28;20096;-72
2020/12/25 00:23:58;;;;;;;13.07;3.90;;;6.80;98.60;;;;;;4993541;28;20460;-72
2020/12/25 00:26:28;;;;;;;12.05;4.05;;;6.60;98.70;;;;;;4990893;28;20057;-72
2020/12/25 00:28:58;;;;;;;7.35;3.20;;;6.60;98.80;;;;;;4992041;28;20472;-72
2020/12/25 00:31:26;;;;;;;9.40;3.28;;;6.60;98.80;;;;;;4993623;28;20460;-71
2020/12/25 00:33:52;;;;;;;9.38;3.80;;;6.60;98.80;;;;;;4995752;28;20042;-71
2020/12/25 00:36:47;;;;;;;9.45;3.60;;;6.50;98.70;;;;;;4996108;28;20450;-72
2020/12/25 00:39:14;;;;;;;11.02;4.05;;;6.60;98.80;;;;;;4983296;28;20129;-71
2020/12/25 00:41:51;;;;;;;9.93;3.50;;;6.50;98.60;;;;;;4997130;28;20034;-72
2020/12/25 00:44:17;;;;;;;11.38;3.53;;;6.40;98.70;;;;;;4995606;28;20035;-72
2020/12/25 00:46:44;;;;;;;7.93;3.42;;;6.50;98.80;;;;;;4995587;28;20046;-72
2020/12/25 00:49:11;;;;;;;5.60;3.28;;;6.40;98.70;;;;;;4994306;28;20057;-71
2020/12/25 00:51:37;;;;;;;9.75;3.67;;;6.40;98.60;;;;;;4994278;28;20030;-72
2020/12/25 00:54:03;;;;;;;7.55;3.20;;;6.40;98.50;;;;;;4993756;28;20061;-73
2020/12/25 00:56:28;;;;;;;6.18;2.80;;;6.30;98.50;;;;;;4995869;28;20062;-71
2020/12/25 00:58:54;;;;;;;5.00;2.70;;;6.30;98.50;;;;;;4995195;28;20452;-71
2020/12/25 01:01:20;;;;;;;8.65;2.85;;;6.30;98.50;;;;;;4995097;28;20039;-71
2020/12/25 01:03:46;;;;;;;9.20;3.05;;;6.30;98.70;;;;;;4995298;28;20049;-72
2020/12/25 01:06:16;;;;;;;7.50;3.47;;;6.20;98.50;;;;;;4994933;28;20037;-72
2020/12/25 01:08:43;;;;;;;10.15;3.58;;;6.20;98.50;;;;;;4996643;28;20022;-71
2020/12/25 01:11:09;;;;;;;8.48;2.90;;;6.20;98.40;;;;;;4995267;28;20045;-72
2020/12/25 01:13:37;;;;;;;13.25;3.08;;;6.30;98.40;;;;;;4995108;28;20039;-71
2020/12/25 01:16:07;;;;;;;9.63;3.10;;;6.20;98.30;;;;;;4995155;28;20034;-72
2020/12/25 01:18:33;;;;;;;7.82;3.15;;;6.20;98.30;;;;;;4994933;28;20272;-72
2020/12/25 01:20:59;;;;;;;16.83;3.28;;;6.20;98.30;;;;;;4996474;28;20105;-71
2020/12/25 01:23:25;;;;;;;10.13;2.85;;;6.10;98.20;;;;;;4993707;28;20042;-72
2020/12/25 01:25:51;;;;;;;5.13;2.85;;;6.10;98.20;;;;;;4994539;28;20053;-72
2020/12/25 01:28:18;;;;;;;8.13;2.28;;;6.20;98.20;;;;;;4994624;28;20046;-70
2020/12/25 01:30:43;;;;;;;3.75;2.50;;;6.30;98.10;;;;;;4995011;28;20049;-70
2020/12/25 01:33:09;;;;;;;10.88;3.38;;;6.30;98.00;;;;;;4994598;28;20037;-71
2020/12/25 01:35:35;;;;;;;6.25;2.53;;;6.20;97.90;;;;;;4996301;28;20026;-71
2020/12/25 01:38:01;;;;;;;7.22;2.75;;;6.20;97.90;;;;;;4994549;28;20034;-72
2020/12/25 01:40:27;;;;;;;8.98;2.83;;;6.30;97.90;;;;;;4993275;28;20472;-72
2020/12/25 01:42:52;;;;;;;5.30;2.65;;;6.30;97.80;;;;;;4993264;28;20469;-72
2020/12/25 01:45:18;;;;;;;6.90;2.38;;;6.30;97.70;;;;;;4994753;28;20030;-72
2020/12/25 01:47:44;;;;;;;7.13;2.60;;;6.40;97.70;;;;;;4996046;28;20083;-72
2020/12/25 01:50:12;;;;;;;3.58;2.35;;;6.20;97.60;;;;;;4994482;28;20042;-72
2020/12/25 01:52:38;;;;;;;8.40;2.63;;;6.10;97.70;;;;;;4993458;28;20378;-71
2020/12/25 01:55:06;;;;;;;5.72;3.80;;;6.10;97.70;;;;;;4994205;28;20065;-71
2020/12/25 01:57:32;;;;;;;;;;;6.10;97.70;;;;;;4994500;28;20050;-71
2020/12/25 01:59:58;;;;;;;7.32;3.15;;;6.20;97.70;;;;;;4996162;28;20060;-71
2020/12/25 02:02:24;;;;;;;4.05;2.10;;;6.20;97.70;;;;;;4994046;28;20377;-71
2020/12/25 02:04:54;;;;;;;4.28;2.58;;;6.20;97.50;;;;;;4993144;28;20049;-71
2020/12/25 02:07:19;;;;;;;6.32;2.35;;;6.20;97.60;;;;;;4994143;28;20538;-71
2020/12/25 02:09:45;;;;;;;5.43;2.58;;;6.30;97.60;;;;;;4994325;28;20058;-71
2020/12/25 02:12:11;;;;;;;7.75;2.85;;;6.20;97.50;;;;;;4993700;28;20026;-71
2020/12/25 02:14:37;;;;;;;5.32;1.92;;;6.20;97.50;;;;;;4995579;28;20483;-72
2020/12/25 02:17:02;;;;;;;5.63;2.25;;;6.30;97.50;;;;;;4993804;28;20395;-71
2020/12/25 02:19:28;;;;;;;12.45;2.78;;;6.20;97.20;;;;;;4994005;28;20151;-71
2020/12/25 02:21:54;;;;;;;6.38;1.98;;;6.40;97.20;;;;;;4992684;28;20031;-71
2020/12/25 02:24:19;;;;;;;4.57;2.40;;;6.40;97.10;;;;;;4994083;28;20136;-71
2020/12/25 02:26:45;;;;;;;6.43;2.40;;;6.30;97.00;;;;;;4995353;28;20376;-72
2020/12/25 02:29:10;;;;;;;5.10;1.95;;;6.30;97.20;;;;;;4993470;28;20042;-72
2020/12/25 02:31:36;;;;;;;5.97;1.95;;;6.30;97.00;;;;;;4992446;28;20487;-71
2020/12/25 02:34:02;;;;;;;5.78;2.33;;;6.30;97.00;;;;;;4993706;28;20037;-71
2020/12/25 02:36:27;;;;;;;4.88;2.35;;;6.30;97.10;;;;;;4993371;28;20064;-72
2020/12/25 02:38:53;;;;;;;5.50;2.17;;;6.30;96.90;;;;;;4995090;28;20091;-72
2020/12/25 02:41:19;;;;;;;3.58;2.00;;;6.30;96.80;;;;;;4993763;28;20034;-72
2020/12/25 02:43:45;;;;;;;6.97;2.30;;;6.30;96.70;;;;;;4993490;28;20034;-72
2020/12/25 02:46:10;;;;;;;6.05;2.17;;;6.40;96.80;;;;;;4993203;28;20034;-72
2020/12/25 02:48:36;;;;;;;4.63;2.30;;;6.30;96.80;;;;;;4992186;28;20030;-72
2020/12/25 02:51:02;;;;;;;6.50;2.25;;;6.30;96.90;;;;;;4994798;28;20037;-71
2020/12/25 02:53:27;;;;;;;5.00;2.30;;;6.30;96.90;;;;;;4993215;28;20145;-72
2020/12/25 02:55:53;;;;;;;5.32;2.60;;;6.30;96.70;;;;;;4993214;28;20058;-71
2020/12/25 02:58:18;;;;;;;7.55;2.40;;;6.20;96.90;;;;;;4993321;28;20046;-71
2020/12/25 03:00:44;;;;;;;7.85;2.33;;;6.30;97.00;;;;;;4992977;28;20045;-72
2020/12/25 03:03:10;;;;;;;6.47;2.40;;;6.20;96.80;;;;;;4992908;28;20018;-71
2020/12/25 03:05:35;;;;;;;6.50;2.40;;;6.30;96.90;;;;;;4994625;28;20014;-72
2020/12/25 03:08:01;;;;;;;8.48;2.85;;;6.40;96.80;;;;;;4992725;28;20456;-71
2020/12/25 03:10:27;;;;;;;6.35;2.67;;;6.40;96.80;;;;;;4992958;28;20076;-71
2020/12/25 03:12:53;;;;;;;5.78;2.30;;;6.40;96.70;;;;;;4991797;28;20039;-70
2020/12/25 03:15:18;;;;;;;7.22;2.35;;;6.40;96.70;;;;;;4992813;28;20034;-71
2020/12/25 03:17:44;;;;;;;11.13;2.40;;;6.40;96.70;;;;;;4994402;28;20061;-71
2020/12/25 03:20:09;;;;;;;4.47;1.80;;;6.30;96.80;;;;;;4992790;28;20031;-73
2020/12/25 03:22:35;;;;;;;4.57;1.83;;;6.30;96.90;;;;;;4992615;28;20065;-71
2020/12/25 03:25:01;;;;;;;3.20;1.90;;;6.40;96.80;;;;;;4992700;28;20376;-72
2020/12/25 03:27:26;;;;;;;7.45;2.22;;;6.30;96.70;;;;;;4992719;28;20030;-71
2020/12/25 03:29:52;;;;;;;6.35;1.92;;;6.40;96.90;;;;;;4993166;28;20022;-72
2020/12/25 03:32:18;;;;;;;5.57;1.45;;;6.30;96.70;;;;;;4992767;28;20043;-71
2020/12/25 03:34:43;;;;;;;4.15;2.05;;;6.40;96.90;;;;;;4991581;28;20065;-71
2020/12/25 03:37:09;;;;;;;6.78;2.13;;;6.40;96.60;;;;;;4992239;28;20093;-72
2020/12/25 03:39:35;;;;;;;6.03;1.60;;;6.40;96.50;;;;;;4992519;28;20035;-72
2020/12/25 03:42:00;;;;;;;3.13;1.75;;;6.30;96.80;;;;;;4993925;28;20468;-71
2020/12/25 03:44:26;;;;;;;4.60;1.90;;;6.40;96.50;;;;;;4992474;28;20038;-71
2020/12/25 03:46:51;;;;;;;7.05;2.05;;;6.40;96.50;;;;;;4992313;28;20085;-71
2020/12/25 03:49:17;;;;;;;3.67;1.55;;;6.40;96.40;;;;;;4992500;28;20053;-71
2020/12/25 03:51:43;;;;;;;3.20;1.52;;;6.30;96.20;;;;;;4992397;28;20121;-71
2020/12/25 03:54:08;;;;;;;4.88;1.90;;;6.30;96.20;;;;;;4992004;28;20026;-72
2020/12/25 03:56:34;;;;;;;3.25;1.73;;;6.30;96.30;;;;;;4993946;28;20054;-71
2020/12/25 03:58:59;;;;;;;4.57;1.80;;;6.40;96.20;;;;;;4992215;28;20456;-72
2020/12/25 04:01:25;;;;;;;3.53;1.45;;;6.30;96.30;;;;;;4992115;28;20042;-72
2020/12/25 04:03:51;;;;;;;7.00;2.08;;;6.20;96.30;;;;;;4992249;28;20100;-70
2020/12/25 04:06:16;;;;;;;4.85;1.45;;;6.30;96.50;;;;;;4996102;28;20031;-71
2020/12/25 04:08:44;;;;;;;9.38;2.10;;;6.20;96.30;;;;;;5000385;28;20023;-71
2020/12/25 04:11:09;;;;;;;3.33;1.73;;;6.30;96.40;;;;;;4998525;28;20030;-71
2020/12/25 04:13:35;;;;;;;7.18;1.90;;;6.20;96.20;;;;;;4998575;28;20038;-71
2020/12/25 04:16:01;;;;;;;6.47;1.75;;;6.20;96.40;;;;;;4998568;28;20035;-71
2020/12/25 04:18:28;;;;;;;4.60;1.42;;;6.20;96.40;;;;;;4998773;28;20042;-71
2020/12/25 04:20:53;;;;;;;4.43;1.92;;;6.20;96.20;;;;;;5000313;28;20088;-71
2020/12/25 04:23:19;;;;;;;14.10;1.95;;;6.20;96.30;;;;;;4998833;28;20121;-71
2020/12/25 04:25:44;;;;;;;5.90;2.17;;;6.30;96.30;;;;;;4998544;28;20038;-71
2020/12/25 04:28:10;;;;;;;3.80;1.67;;;6.00;96.10;;;;;;4998445;28;20031;-72
2020/12/25 04:30:36;;;;;;;6.75;2.05;;;5.80;96.30;;;;;;4998664;28;20045;-72
2020/12/25 04:33:01;;;;;;;4.53;1.92;;;5.90;96.40;;;;;;5000114;28;20057;-71
2020/12/25 04:35:28;;;;;;;4.60;1.92;;;5.80;96.50;;;;;;4998658;28;20053;-71
2020/12/25 04:37:53;;;;;;;6.35;1.88;;;5.70;96.70;;;;;;4998504;28;20472;-70
2020/12/25 04:40:20;;;;;;;4.88;1.63;;;5.70;96.60;;;;;;4997584;28;20046;-72
2020/12/25 04:42:50;;;;;;;4.95;1.70;;;5.70;96.80;;;;;;4997283;28;20042;-70
2020/12/25 04:45:16;;;;;;;4.75;2.47;;;5.70;96.90;;;;;;4998291;28;20444;-71
2020/12/25 04:47:45;;;;;;;8.88;1.95;;;5.70;96.90;;;;;;4999833;28;20027;-71
2020/12/25 04:50:11;;;;;;;6.18;1.80;;;5.80;96.90;;;;;;4997362;28;20038;-71
2020/12/25 04:52:37;;;;;;;4.25;1.38;;;5.90;96.90;;;;;;4998141;28;20479;-72
2020/12/25 04:55:03;;;;;;;5.35;1.88;;;6.00;96.80;;;;;;4998219;28;20065;-70
2020/12/25 04:57:29;;;;;;;6.20;1.95;;;6.00;96.60;;;;;;4998112;28;20384;-70
2020/12/25 04:59:54;;;;;;;8.25;1.80;;;6.10;96.70;;;;;;4999854;28;20026;-71
2020/12/25 05:02:21;;;;;;;5.25;1.98;;;6.10;96.60;;;;;;4997034;28;20038;-71
2020/12/25 05:04:46;;;;;;;6.78;1.50;;;6.10;96.50;;;;;;4998316;28;20038;-71
2020/12/25 05:07:14;;;;;;;4.18;1.48;;;6.10;96.50;;;;;;4998497;28;20100;-72
2020/12/25 05:09:39;;;;;;;3.78;1.17;;;6.00;96.60;;;;;;4998080;28;20373;-72
2020/12/25 05:12:09;;;;;;;5.00;1.63;;;6.00;96.50;;;;;;4997989;28;20027;-72
2020/12/25 05:14:34;;;;;;;4.18;1.67;;;5.70;96.90;;;;;;4998713;28;20030;-70
2020/12/25 05:17:00;;;;;;;3.35;1.50;;;5.60;97.10;;;;;;4996456;28;20041;-70
2020/12/25 05:19:30;;;;;;;11.13;2.20;;;5.90;97.10;;;;;;4994859;28;20054;-71
2020/12/25 05:21:58;;;;;;;7.65;1.88;;;5.90;96.80;;;;;;4995123;28;20341;-71
2020/12/25 05:24:24;;;;;;;6.70;2.00;;;5.90;96.80;;;;;;4995002;28;20487;-72
2020/12/25 05:26:54;;;;;;;5.60;1.40;;;6.00;96.80;;;;;;4996344;28;20022;-71
2020/12/25 05:29:24;;;;;;;8.75;1.98;;;6.00;96.70;;;;;;4995072;28;20460;-72
2020/12/25 05:31:52;;;;;;;7.22;1.92;;;6.10;96.60;;;;;;4994868;28;20038;-71
2020/12/25 05:34:19;;;;;;;5.60;1.95;;;6.10;96.70;;;;;;4994770;28;20424;-71
2020/12/25 05:36:54;;;;;;;5.40;1.77;;;6.10;96.60;;;;;;4994553;28;20113;-71
2020/12/25 05:39:34;;;;;;;3.45;1.60;;;5.90;96.40;;;;;;4994351;28;20080;-71
2020/12/25 05:42:03;;;;;;;5.53;1.80;;;5.80;96.50;;;;;;4994986;28;20026;-71
2020/12/25 05:44:35;;;;;;;6.72;1.92;;;5.90;96.60;;;;;;4994842;28;20038;-71
2020/12/25 05:47:01;;;;;;;4.75;1.67;;;5.90;96.60;;;;;;4994482;28;20117;-71
2020/12/25 05:49:29;;;;;;;6.60;1.77;;;5.90;96.50;;;;;;4993088;28;20124;-71
2020/12/25 05:51:55;;;;;;;6.00;2.05;;;5.90;96.50;;;;;;4994368;28;20189;-72
2020/12/25 05:54:26;;;;;;;8.13;1.63;;;6.00;96.50;;;;;;4993994;28;20037;-71
2020/12/25 05:56:57;;;;;;;4.65;1.50;;;5.90;96.40;;;;;;4995907;28;20018;-71
2020/12/25 05:59:28;;;;;;;2.97;1.65;;;5.90;96.40;;;;;;4994516;28;20528;-73
2020/12/25 06:02:02;;;;;;;2.83;1.55;;;5.90;96.30;;;;;;4994566;28;20128;-70
2020/12/25 06:04:29;;;;;;;5.28;2.40;;;5.70;96.30;;;;;;4993357;28;20038;-72
2020/12/25 06:06:56;;;;;;;4.05;2.17;;;5.70;96.30;;;;;;4993882;28;20448;-70
2020/12/25 06:09:32;;;;;;;8.40;2.47;;;5.80;96.90;;;;;;4994015;28;20027;-71
2020/12/25 06:11:59;;;;;;;5.82;1.88;;;5.70;96.60;;;;;;4995710;28;20037;-71
2020/12/25 06:14:24;;;;;;;5.85;1.90;;;5.50;96.40;;;;;;4994238;28;20058;-71
2020/12/25 06:17:06;;;;;;;4.78;1.80;;;5.60;96.60;;;;;;4994082;28;20471;-71
2020/12/25 06:19:53;;;;;;;6.03;1.65;;;5.40;96.60;;;;;;4993949;28;20049;-71
2020/12/25 06:22:22;;;;;;;3.72;1.60;;;5.40;96.70;;;;;;4993913;28;20129;-72
2020/12/25 06:24:50;;;;;;;6.97;2.22;;;5.20;96.90;;;;;;4994025;28;20026;-71
2020/12/25 06:27:16;;;;;;;7.95;2.80;;;5.30;97.00;;;;;;4992785;28;20045;-71
2020/12/25 06:29:43;;;;;;;6.30;2.22;;;5.30;96.90;;;;;;4994567;28;20022;-71
2020/12/25 06:32:10;;;;;;;6.20;2.10;;;5.30;96.90;;;;;;4993881;28;20487;-73
2020/12/25 06:34:44;;;;;;;6.90;2.60;;;5.30;96.80;;;;;;4993627;28;20086;-72
2020/12/25 06:37:13;;;;;;;4.07;2.15;;;5.10;97.00;;;;;;4993374;28;20093;-70
2020/12/25 06:39:53;;;;;;;5.70;2.03;;;5.20;97.20;;;;;;4993498;28;20044;-71
2020/12/25 06:42:29;;;;;;;6.40;2.55;;;5.10;97.10;;;;;;4993483;28;20041;-71
2020/12/25 06:44:56;;;;;;;5.55;2.40;;;5.10;97.00;;;;;;4995104;28;20022;-71
2020/12/25 06:47:36;;;;;;;8.52;2.63;;;5.20;97.20;;;;;;4993310;28;20050;-71
2020/12/25 06:50:11;;;;;;;12.38;6.40;;;5.30;97.10;;;;;;4993187;28;20035;-71
2020/12/25 06:53:00;;;;;;;7.03;2.33;;;5.40;97.10;;;;;;4992965;28;20037;-72
2020/12/25 06:55:40;;;;;;;11.30;2.90;;;5.40;97.20;;;;;;4993228;28;20054;-71
2020/12/25 06:58:05;;;;;;;8.63;2.83;;;5.40;97.20;;;;;;4993027;28;20126;-72
2020/12/25 07:00:31;;;;;;;4.90;2.72;;;5.40;97.00;;;;;;4992962;28;20109;-71
2020/12/25 07:03:10;;;;;;;8.57;3.17;;;5.30;97.00;;;;;;4993725;28;20041;-72
2020/12/25 07:05:44;;;;;;;12.38;2.83;;;5.40;96.90;;;;;;4992408;28;20034;-72
2020/12/25 07:08:27;;;;;;;9.85;3.22;;;5.30;97.00;;;;;;4992973;28;20038;-71
2020/12/25 07:11:03;;;;;;;9.50;3.15;;;5.20;97.00;;;;;;4993025;28;20077;-73
2020/12/25 07:13:30;;;;;;;6.55;3.15;;;5.00;97.20;;;;;;4991828;28;20511;-72
2020/12/25 07:15:57;;;;;;;9.50;3.47;;;5.00;97.20;;;;;;4992710;28;20057;-70
2020/12/25 07:18:22;;;;;;;13.05;3.20;;;4.90;97.40;;;;;;4992616;28;22730;-70
2020/12/25 07:20:48;;;;;;;6.47;2.83;;;5.20;97.50;;;;;;4994402;28;20110;-73
2020/12/25 07:23:15;;;;;;;6.47;3.05;;;5.20;97.20;;;;;;4992841;28;20030;-72
2020/12/25 07:25:41;;;;;;;14.13;3.20;;;5.00;97.40;;;;;;4992541;28;20099;-71
2020/12/25 07:28:07;;;;;;;5.55;2.78;;;5.10;97.70;;;;;;4992772;28;20129;-71
2020/12/25 07:30:33;;;;;;;10.50;3.97;;;5.10;97.40;;;;;;4991554;28;20030;-72
2020/12/25 07:32:59;;;;;;;9.70;3.17;;;5.20;97.60;;;;;;4994186;28;20031;-70
2020/12/25 07:35:25;;;;;;;14.65;3.63;;;5.30;97.20;;;;;;4992962;28;20034;-71
2020/12/25 07:37:54;;;;;;;7.15;2.97;;;5.30;97.30;;;;;;4992550;28;20046;-71
2020/12/25 07:40:20;;;;;;;10.90;2.63;;;5.20;97.40;;;;;;4991564;28;20048;-71
2020/12/25 07:42:46;;;;;;;8.27;2.70;;;5.20;97.20;;;;;;4992998;28;20042;-71
2020/12/25 07:45:12;;;;;;;7.57;3.20;;;5.40;97.30;;;;;;4992474;28;20018;-72
2020/12/25 07:47:41;;;;;;;9.13;3.13;;;5.50;97.20;;;;;;4992924;28;20040;-71
2020/12/25 07:50:07;;;;;;;12.63;3.92;;;5.20;97.10;;;;;;4992150;28;20117;-71
2020/12/25 07:52:32;;;;;;;7.30;3.33;;;5.40;97.40;;;;;;4992358;28;20125;-73
2020/12/25 07:54:58;;;;;;;12.00;3.80;;;5.30;97.00;;;;;;4991932;28;20062;-73
2020/12/25 07:57:23;;;;;;;9.95;4.70;;;5.30;97.50;;;;;;4992126;28;20062;-72
2020/12/25 07:59:50;;;;;;;11.52;3.78;;;5.30;97.30;;;;;;4992778;28;20033;-74
2020/12/25 08:02:18;;;;;;;11.57;3.75;;;5.50;97.20;;;;;;4991283;28;20046;-73
2020/12/25 08:04:45;;;;;;;16.10;4.32;;;5.40;97.00;;;;;;4992093;28;20035;-72
2020/12/25 08:07:11;;;;;;;9.38;3.85;;;5.40;97.10;;;;;;4991971;28;20130;-71
2020/12/25 08:09:38;;;;;;;13.73;4.63;;;5.30;97.00;;;;;;4992299;28;20023;-72
2020/12/25 08:12:08;;;;;;;12.05;4.57;;;5.30;97.10;;;;;;4991978;28;20117;-71
2020/12/25 08:14:39;;;;;;;7.63;4.38;;;5.20;97.10;;;;;;4993733;28;20452;-71
2020/12/25 08:17:07;;;;;;;7.95;4.32;;;5.40;97.10;;;;;;4992255;28;20070;-71
2020/12/25 08:19:36;;;;;;;9.57;4.70;;;5.50;97.10;;;;;;4991870;28;20496;-72
2020/12/25 08:22:03;;;;;;;13.10;5.53;;;5.50;97.10;;;;;;4991852;28;20100;-71
2020/12/25 08:24:29;;;;;;;21.10;5.13;;;5.50;96.90;;;;;;4990888;28;20034;-72
2020/12/25 08:26:59;;;;;;;10.48;4.50;;;5.60;96.90;;;;;;4993415;28;20023;-70
2020/12/25 08:29:24;;;;;;;11.85;4.85;;;5.40;97.00;;;;;;4991052;28;20068;-71
2020/12/25 08:31:50;;;;;;;14.65;5.43;;;5.50;97.00;;;;;;4992048;28;20368;-71
2020/12/25 08:34:21;;;;;;;15.32;4.80;;;5.50;96.80;;;;;;4991904;28;20097;-73
2020/12/25 08:36:57;;;;;;;9.45;4.00;;;5.60;96.80;;;;;;4991975;28;20373;-72
2020/12/25 08:39:30;;;;;;;13.75;4.68;;;5.60;96.60;;;;;;4992033;28;20133;-70
2020/12/25 08:41:56;;;;;;;14.10;4.78;;;5.50;96.70;;;;;;4993441;28;20092;-73
2020/12/25 08:44:22;;;;;;;9.55;4.80;;;5.40;96.80;;;;;;4991615;28;20039;-72
2020/12/25 08:46:48;;;;;;;15.93;4.88;;;5.50;96.90;;;;;;4991961;28;20038;-75
2020/12/25 08:49:29;;;;;;;14.25;4.85;;;5.70;96.90;;;;;;4991633;28;20030;-74
2020/12/25 08:51:55;;;;;;;13.13;4.90;;;5.50;96.80;;;;;;4992316;28;20105;-74
2020/12/25 08:54:25;;;;;;;12.00;4.95;;;5.40;96.80;;;;;;4995427;28;20515;-70
2020/12/25 08:56:51;;;;;;;12.27;5.32;;;5.30;96.90;;;;;;4995998;28;20196;-69
2020/12/25 08:59:20;;;;;;;13.55;4.95;;;5.20;97.10;;;;;;4994480;28;20129;-71
2020/12/25 09:01:50;;;;;;;14.27;5.18;;;5.10;97.00;;;;;;4994993;28;20345;-71
2020/12/25 09:04:19;;;;;;;14.75;5.03;;;5.30;96.90;;;;;;4995303;28;20397;-70
2020/12/25 09:06:49;;;;;;;8.93;4.18;;;5.40;96.80;;;;;;4995271;28;20039;-71
2020/12/25 09:09:15;;;;;;;17.77;4.80;;;5.30;96.80;;;;;;4995483;28;20026;-74
2020/12/25 09:11:40;;;;;;;10.65;4.35;;;5.30;96.80;;;;;;4996690;28;20521;-78
2020/12/25 09:14:06;;;;;;;16.45;4.88;;;5.10;96.80;;;;;;4994840;28;20034;-77
2020/12/25 09:16:32;;;;;;;16.52;5.20;;;5.00;96.80;;;;;;4995153;28;20121;-76
2020/12/25 09:18:59;;;;;;;18.17;4.53;;;5.20;97.00;;;;;;4995129;28;20606;-75
2020/12/25 09:21:27;;;;;;;13.75;5.15;;;5.20;96.90;;;;;;4994988;28;20034;-79
2020/12/25 09:23:53;;;;;;;10.73;4.00;;;5.20;96.90;;;;;;4996550;28;20022;-70
2020/12/25 09:26:19;;;;;;;9.18;3.97;;;5.30;96.60;;;;;;4994995;28;20042;-69
2020/12/25 09:28:45;;;;;;;10.70;3.85;;;5.20;96.30;;;;;;4994029;28;20035;-81
2020/12/25 09:31:12;;;;;;;10.43;4.22;;;5.20;96.40;;;;;;4994743;28;20133;-75
2020/12/25 09:33:38;;;;;;;13.52;4.82;;;5.40;96.60;;;;;;4993799;28;20073;-74
2020/12/25 09:36:05;;;;;;;12.02;5.35;;;5.40;96.40;;;;;;4993670;28;20385;-77
2020/12/25 09:38:31;;;;;;;23.67;4.57;;;5.30;96.50;;;;;;4995041;28;20030;-77
2020/12/25 09:40:56;;;;;;;13.98;4.68;;;5.20;96.70;;;;;;4993330;28;20035;-77
2020/12/25 09:43:23;;;;;;;8.93;4.60;;;5.30;96.60;;;;;;4994461;28;20038;-74
2020/12/25 09:45:48;;;;;;;12.40;3.78;;;5.30;96.30;;;;;;4993555;28;20535;-76
2020/12/25 09:48:14;;;;;;;11.70;4.00;;;5.30;96.20;;;;;;4994580;28;20046;-69
2020/12/25 09:50:42;;;;;;;39.47;7.03;;;5.30;96.20;;;;;;4996020;28;20018;-71
2020/12/25 09:53:07;;;;;;;13.07;4.10;;;5.40;96.70;;;;;;4994126;28;20368;-72
2020/12/25 09:55:37;;;;;;;13.57;3.10;;;5.50;96.60;;;;;;4994194;28;20065;-69
2020/12/25 09:58:04;;;;;;;9.60;3.58;;;5.60;96.20;;;;;;4994268;28;20364;-70
2020/12/25 10:00:29;;;;;;;10.73;4.10;;;5.70;96.00;;;;;;4992805;28;20026;-69
2020/12/25 10:02:55;;;;;;;15.05;4.65;;;5.70;95.80;;;;;;4994245;28;20045;-69
2020/12/25 10:05:21;;;;;;;9.63;4.22;;;5.60;95.70;;;;;;4993940;28;20116;-71
2020/12/25 10:07:48;;;;;;;15.15;3.55;;;5.60;95.90;;;;;;4994037;28;20372;-69
2020/12/25 10:10:14;;;;;;;11.33;2.33;;;5.80;95.60;;;;;;4993992;28;20133;-69
2020/12/25 10:12:40;;;;;;;11.05;3.05;;;5.70;95.00;;;;;;4992856;28;20047;-68
2020/12/25 10:15:06;;;;;;;15.20;3.15;;;5.80;95.10;;;;;;4993746;28;20092;-68
2020/12/25 10:17:33;;;;;;;11.65;2.90;;;5.80;95.20;;;;;;4995456;28;21885;-70
2020/12/25 10:19:58;;;;;;;8.68;2.80;;;5.80;95.00;;;;;;4993774;28;20042;-70
2020/12/25 10:22:24;;;;;;;13.18;2.40;;;5.90;95.10;;;;;;4993725;28;20050;-68
2020/12/25 10:24:49;;;;;;;7.38;2.58;;;6.00;95.10;;;;;;4993650;28;20045;-69
2020/12/25 10:27:15;;;;;;;7.60;2.50;;;6.00;94.70;;;;;;4992511;28;20045;-68
2020/12/25 10:29:41;;;;;;;7.45;2.40;;;5.90;94.70;;;;;;4995296;28;20046;-68
2020/12/25 10:32:07;;;;;;;9.45;2.00;;;5.80;94.80;;;;;;4992537;28;20096;-69
2020/12/25 10:34:32;;;;;;;7.85;2.35;;;5.90;94.70;;;;;;4993926;28;20034;-69
2020/12/25 10:37:00;;;;;;;6.38;1.73;;;6.00;94.70;;;;;;4993842;28;20053;-71
2020/12/25 10:39:26;;;;;;;9.73;2.58;;;5.90;94.40;;;;;;4993410;28;20046;-69
2020/12/25 10:41:51;;;;;;;11.43;2.00;;;6.00;94.50;;;;;;4994979;28;20092;-68
2020/12/25 10:44:17;;;;;;;2.70;1.75;;;6.00;94.30;;;;;;4993225;28;20067;-74
2020/12/25 10:46:43;;;;;;;21.50;2.50;;;6.00;94.30;;;;;;4993347;28;20467;-68
2020/12/25 10:49:08;;;;;;;6.22;2.03;;;6.10;94.20;;;;;;4993338;28;20068;-72
2020/12/25 10:51:34;;;;;;;6.07;2.00;;;6.10;94.10;;;;;;4993380;28;20468;-71
2020/12/25 10:53:59;;;;;;;10.30;2.20;;;6.00;94.00;;;;;;4994777;28;20034;-73
2020/12/25 10:56:29;;;;;;;7.88;2.03;;;6.10;93.90;;;;;;4993037;28;20388;-74
2020/12/25 10:58:55;;;;;;;6.47;1.88;;;6.10;93.90;;;;;;4992860;28;20053;-72
2020/12/25 11:01:24;;;;;;;4.65;1.83;;;6.20;93.70;;;;;;4993015;28;20353;-75
2020/12/25 11:03:51;;;;;;;6.43;1.63;;;6.20;93.70;;;;;;4993227;28;20120;-76
2020/12/25 11:06:18;;;;;;;7.45;2.22;;;6.10;93.50;;;;;;4993105;28;20078;-76
2020/12/25 11:08:47;;;;;;;13.80;2.25;;;6.10;93.50;;;;;;4994683;28;20022;-78
2020/12/25 11:11:43;;;;;;;7.65;2.42;;;6.10;93.30;;;;;;4992856;28;20137;-75
2020/12/25 11:14:09;;;;;;;4.60;1.60;;;6.00;93.00;;;;;;4980043;28;20046;-72
2020/12/25 11:16:36;;;;;;;4.57;1.92;;;6.00;93.10;;;;;;4992656;28;20100;-72
2020/12/25 11:19:09;;;;;;;10.35;1.90;;;6.20;93.10;;;;;;4992645;28;20045;-73
2020/12/25 11:21:35;;;;;;;7.68;2.22;;;6.20;93.10;;;;;;4992813;28;20038;-76
2020/12/25 11:24:02;;;;;;;10.05;1.73;;;6.20;93.20;;;;;;4994270;28;20022;-75
2020/12/25 11:26:30;;;;;;;6.47;1.65;;;6.20;93.20;;;;;;4992877;28;20572;-83
2020/12/25 11:29:04;;;;;;;6.53;2.35;;;6.10;93.10;;;;;;4991996;28;20118;-77
2020/12/25 11:31:31;;;;;;;8.18;2.03;;;6.20;93.10;;;;;;4990464;28;20030;-69
2020/12/25 11:33:57;;;;;;;5.82;2.10;;;6.30;93.00;;;;;;4992559;28;20030;-67
2020/12/25 11:36:25;;;;;;;9.43;2.60;;;6.40;93.00;;;;;;4991548;28;20125;-69
2020/12/25 11:38:51;;;;;;;7.82;2.95;;;6.60;93.00;;;;;;4993952;28;20034;-67
2020/12/25 11:41:19;;;;;;;10.48;2.60;;;7.10;92.90;;;;;;4992458;28;20354;-70
2020/12/25 11:43:47;;;;;;;;;;;7.70;92.30;;;;;;4992854;28;20058;-67
2020/12/25 11:46:13;;;;;;;14.15;2.33;;;8.20;91.00;;;;;;4991317;28;20419;-68
2020/12/25 11:48:39;;;;;;;10.40;2.10;;;8.50;90.60;;;;;;4992354;28;20038;-67
2020/12/25 11:51:08;;;;;;;5.43;1.98;;;8.90;90.30;;;;;;4992330;28;20046;-67
2020/12/25 11:53:37;;;;;;;3.78;1.50;;;8.70;90.10;;;;;;4993026;28;20134;-68
2020/12/25 11:56:03;;;;;;;6.93;1.92;;;8.60;89.80;;;;;;4991888;28;20156;-66
2020/12/25 11:58:29;;;;;;;5.28;1.40;;;8.40;89.10;;;;;;4992142;28;20054;-68
2020/12/25 12:00:54;;;;;;;6.13;1.98;;;8.60;89.40;;;;;;4992226;28;20061;-71
2020/12/25 12:03:23;;;;;;;7.65;1.60;;;8.60;89.10;;;;;;4992204;28;20023;-67
2020/12/25 12:05:48;;;;;;;5.07;1.88;;;8.50;88.60;;;;;;4993784;28;20031;-68
2020/12/25 12:08:14;;;;;;;8.40;1.50;;;8.60;88.60;;;;;;4992361;28;20129;-67
2020/12/25 12:10:40;;;;;;;7.13;1.60;;;8.60;87.00;;;;;;4992266;28;20121;-71
2020/12/25 12:13:06;;;;;;;4.88;1.63;;;8.60;87.70;;;;;;4990741;28;20401;-68
2020/12/25 12:15:39;;;;;;;7.13;1.70;;;8.60;87.50;;;;;;4992004;28;20077;-69
2020/12/25 12:18:07;;;;;;;4.07;1.17;;;8.70;86.30;;;;;;4991871;28;20420;-67
2020/12/25 12:20:36;;;;;;;5.60;1.38;;;8.80;86.50;;;;;;4993860;28;20014;-67
2020/12/25 12:23:02;;;;;;;9.60;1.33;;;8.70;85.70;;;;;;4992185;28;20055;-66
2020/12/25 12:25:28;;;;;;;7.70;1.50;;;8.50;85.60;;;;;;4991974;28;20046;-67
2020/12/25 12:27:55;;;;;;;5.80;1.50;;;8.60;86.30;;;;;;4993590;28;20097;-64
2020/12/25 12:30:21;;;;;;;3.30;0.98;;;8.60;86.20;;;;;;4995880;28;20080;-68
2020/12/25 12:32:47;;;;;;;5.53;1.10;;;8.50;86.00;;;;;;4997554;28;20117;-67
2020/12/25 12:35:13;;;;;;;3.85;1.00;;;8.50;86.10;;;;;;4995796;28;20039;-64
2020/12/25 12:37:40;;;;;;;6.68;1.08;;;8.50;85.50;;;;;;4995903;28;20046;-64
2020/12/25 12:40:06;;;;;;;7.13;1.10;;;8.40;85.40;;;;;;4996018;28;20386;-65
2020/12/25 12:42:33;;;;;;;7.05;1.10;;;8.40;84.90;;;;;;4995893;28;20038;-64
2020/12/25 12:44:59;;;;;;;4.57;1.15;;;8.30;84.30;;;;;;4997259;28;20018;-65
2020/12/25 12:47:24;;;;;;;5.75;1.23;;;8.10;84.00;;;;;;4995781;28;20500;-64
2020/12/25 12:49:50;;;;;;;9.38;2.75;;;7.90;85.50;;;;;;4993900;28;20030;-65
2020/12/25 12:52:15;;;;;;;5.05;1.33;;;7.90;85.70;;;;;;4995939;28;20118;-64
2020/12/25 12:54:41;;;;;;;4.18;0.90;;;7.80;86.40;;;;;;4995507;28;20096;-64
2020/12/25 12:57:07;;;;;;;7.35;1.65;;;7.80;86.80;;;;;;4994248;28;20015;-67